createdAt,value
2019-01-21T00:00:37.760Z,95588.36
2019-01-21T00:01:41.393Z,95586.51
2019-01-21T00:02:44.964Z,95584.69
2019-01-21T00:03:48.495Z,95583.92
2019-01-21T00:04:52.076Z,95588.80
2019-01-21T00:05:55.752Z,95580.36
2019-01-21T00:06:59.330Z,95577.09
2019-01-21T00:08:02.849Z,95579.79
2019-01-21T00:09:07.734Z,95576.97
2019-01-21T00:10:11.331Z,95581.17
2019-01-21T00:11:14.856Z,95584.05
2019-01-21T00:12:18.271Z,95581.70
2019-01-21T00:13:21.791Z,95582.63
2019-01-21T00:14:25.292Z,95577.09
2019-01-21T00:15:28.896Z,95579.60
2019-01-21T00:16:32.465Z,95580.17
2019-01-21T00:17:35.911Z,95583.44
2019-01-21T00:18:39.525Z,95584.48
2019-01-21T00:19:43.346Z,95578.74
2019-01-21T00:20:46.849Z,95579.51
2019-01-21T00:21:50.277Z,95578.98
2019-01-21T00:22:53.811Z,95582.41
2019-01-21T00:23:57.292Z,95579.91
2019-01-21T00:25:00.835Z,95586.30
2019-01-21T00:26:04.535Z,95585.53
2019-01-21T00:27:08.030Z,95580.89
2019-01-21T00:28:11.530Z,95586.06
2019-01-21T00:29:15.029Z,95585.30
2019-01-21T00:30:18.688Z,95583.56
2019-01-21T00:31:22.213Z,95586.59
2019-01-21T00:32:25.653Z,95587.68
2019-01-21T00:33:29.089Z,95581.41
2019-01-21T00:34:32.594Z,95584.00
2019-01-21T00:35:36.055Z,95587.23
2019-01-21T00:36:39.622Z,95584.12
2019-01-21T00:37:43.058Z,95583.56
2019-01-21T00:38:46.564Z,95588.20
2019-01-21T00:39:50.020Z,95585.86
2019-01-21T00:40:53.809Z,95587.44
2019-01-21T00:41:57.374Z,95583.76
2019-01-21T00:43:00.902Z,95587.94
2019-01-21T00:44:04.490Z,95583.31
2019-01-21T00:45:08.765Z,95585.27
2019-01-21T00:46:12.273Z,95587.23
2019-01-21T00:47:15.695Z,95584.20
2019-01-21T00:48:19.148Z,95582.47
2019-01-21T00:49:22.717Z,95580.05
2019-01-21T00:50:26.412Z,95583.16
2019-01-21T00:51:29.838Z,95579.60
2019-01-21T00:52:33.270Z,95583.56
2019-01-21T00:53:36.768Z,95580.37
2019-01-21T00:54:40.200Z,95583.69
2019-01-21T00:55:43.694Z,95581.87
2019-01-21T00:56:47.259Z,95584.29
2019-01-21T00:57:50.698Z,95584.20
2019-01-21T00:58:54.119Z,95587.77
2019-01-21T00:59:57.701Z,95591.65
2019-01-21T01:01:01.245Z,95588.08
2019-01-21T01:02:04.815Z,95578.67
2019-01-21T01:03:08.318Z,95588.94
2019-01-21T01:04:11.823Z,95593.27
2019-01-21T01:05:15.523Z,95592.14
2019-01-21T01:06:19.009Z,95591.93
2019-01-21T01:07:22.542Z,95596.98
2019-01-21T01:08:26.052Z,95595.25
2019-01-21T01:09:29.563Z,95597.10
2019-01-21T01:10:32.996Z,95594.11
2019-01-21T01:11:36.489Z,95596.70
2019-01-21T01:12:40.001Z,95594.81
2019-01-21T01:13:43.498Z,95593.75
2019-01-21T01:14:46.941Z,95595.05
2019-01-21T01:15:50.458Z,95596.19
2019-01-21T01:16:53.902Z,95587.98
2019-01-21T01:17:57.341Z,95588.34
2019-01-21T01:19:01.015Z,95587.81
2019-01-21T01:20:12.910Z,95591.93
2019-01-21T01:21:16.369Z,95593.39
2019-01-21T01:22:19.806Z,95589.27
2019-01-21T01:23:23.239Z,95592.55
2019-01-21T01:24:26.680Z,95597.10
2019-01-21T01:25:30.122Z,95584.91
2019-01-21T01:26:33.556Z,95593.43
2019-01-21T01:27:37.216Z,95593.11
2019-01-21T01:28:40.713Z,95591.52
2019-01-21T01:29:44.145Z,95588.78
2019-01-21T01:30:47.743Z,95584.81
2019-01-21T01:31:51.245Z,95586.11
2019-01-21T01:32:54.752Z,95587.41
2019-01-21T01:33:58.261Z,95587.64
2019-01-21T01:35:01.696Z,95587.41
2019-01-21T01:36:05.218Z,95585.91
2019-01-21T01:37:08.713Z,95586.20
2019-01-21T01:38:12.143Z,95591.28
2019-01-21T01:39:15.570Z,95584.16
2019-01-21T01:40:19.367Z,95587.20
2019-01-21T01:41:22.951Z,95588.49
2019-01-21T01:42:26.450Z,95588.49
2019-01-21T01:43:29.961Z,95585.79
2019-01-21T01:44:33.389Z,95580.61
2019-01-21T01:45:36.956Z,95586.11
2019-01-21T01:46:40.461Z,95585.50
2019-01-21T01:47:44.887Z,95580.33
2019-01-21T01:48:48.666Z,95585.66
2019-01-21T01:49:52.336Z,95588.05
2019-01-21T01:50:56.171Z,95593.83
2019-01-21T01:51:59.681Z,95584.45
2019-01-21T01:53:03.254Z,95593.11
2019-01-21T01:54:06.827Z,95590.23
2019-01-21T01:55:11.607Z,95581.17
2019-01-21T01:56:15.123Z,95586.11
2019-01-21T01:57:18.618Z,95583.20
2019-01-21T01:58:22.105Z,95587.00
2019-01-21T01:59:25.617Z,95583.12
2019-01-21T02:00:29.486Z,95585.50
2019-01-21T02:01:33.145Z,95587.00
2019-01-21T02:02:36.712Z,95582.59
2019-01-21T02:03:40.144Z,95584.38
2019-01-21T02:04:43.576Z,95583.84
2019-01-21T02:05:47.140Z,95581.78
2019-01-21T02:06:51.118Z,95580.28
2019-01-21T02:07:54.962Z,95579.81
2019-01-21T02:08:58.456Z,95583.92
2019-01-21T02:10:01.958Z,95585.66
2019-01-21T02:11:05.485Z,95574.34
2019-01-21T02:12:08.982Z,95583.84
2019-01-21T02:13:12.554Z,95578.34
2019-01-21T02:14:16.227Z,95579.73
2019-01-21T02:15:19.725Z,95581.47
2019-01-21T02:16:23.173Z,95583.84
2019-01-21T02:17:26.667Z,95581.02
2019-01-21T02:18:30.094Z,95582.95
2019-01-21T02:19:35.368Z,95590.40
2019-01-21T02:20:39.542Z,95583.61
2019-01-21T02:21:43.528Z,95582.02
2019-01-21T02:22:49.442Z,95584.61
2019-01-21T02:23:56.308Z,95583.31
2019-01-21T02:25:01.646Z,95583.76
2019-01-21T02:26:07.339Z,95578.22
2019-01-21T02:27:14.350Z,95580.05
2019-01-21T02:28:26.623Z,95586.43
2019-01-21T02:29:39.336Z,95576.61
2019-01-21T02:31:03.941Z,95583.52
2019-01-21T02:32:28.281Z,95580.28
2019-01-21T02:33:51.031Z,95586.28
2019-01-21T02:35:15.417Z,95577.22
2019-01-21T02:36:39.798Z,95577.34
2019-01-21T02:37:58.180Z,95576.12
2019-01-21T02:39:07.338Z,95578.75
2019-01-21T02:40:16.611Z,95575.72
2019-01-21T02:41:23.095Z,95580.28
2019-01-21T02:42:47.349Z,95581.78
2019-01-21T02:43:56.483Z,95581.11
2019-01-21T02:45:29.802Z,95583.16
2019-01-21T02:46:36.282Z,95583.04
2019-01-21T02:47:45.245Z,95579.12
2019-01-21T02:49:00.507Z,95579.56
2019-01-21T02:50:24.936Z,95580.41
2019-01-21T02:51:59.736Z,95577.27
2019-01-21T02:53:41.680Z,95581.70
2019-01-21T02:54:59.389Z,95587.24
2019-01-21T02:56:22.183Z,95582.06
2019-01-21T02:57:28.702Z,95586.64
2019-01-21T02:59:07.843Z,95581.91
2019-01-21T03:00:26.307Z,95582.02
2019-01-21T03:01:57.863Z,95573.25
2019-01-21T03:03:21.824Z,95576.40
2019-01-21T03:04:56.678Z,95565.25
2019-01-21T03:06:08.921Z,95572.61
2019-01-21T03:07:38.492Z,95574.43
2019-01-21T03:09:04.522Z,95573.09
2019-01-21T03:10:34.773Z,95579.16
2019-01-21T03:11:47.321Z,95573.98
2019-01-21T03:13:02.007Z,95566.06
2019-01-21T03:14:11.081Z,95564.69
2019-01-21T03:15:33.591Z,95572.61
2019-01-21T03:16:40.070Z,95564.40
2019-01-21T03:17:52.043Z,95572.81
2019-01-21T03:19:01.249Z,95569.70
2019-01-21T03:20:10.177Z,95568.05
2019-01-21T03:21:31.334Z,95573.09
2019-01-21T03:22:49.701Z,95572.33
2019-01-21T03:24:28.763Z,95571.08
2019-01-21T03:26:04.927Z,95570.55
2019-01-21T03:27:27.766Z,95571.31
2019-01-21T03:28:40.110Z,95572.05
2019-01-21T03:30:10.281Z,95572.28
2019-01-21T03:31:41.965Z,95564.69
2019-01-21T03:33:10.705Z,95568.57
2019-01-21T03:34:17.211Z,95576.57
2019-01-21T03:35:41.028Z,95566.63
2019-01-21T03:37:12.735Z,95565.54
2019-01-21T03:38:28.104Z,95572.45
2019-01-21T03:39:59.703Z,95576.66
2019-01-21T03:41:06.203Z,95568.45
2019-01-21T03:42:12.691Z,95568.09
2019-01-21T03:43:24.847Z,95566.27
2019-01-21T03:45:04.120Z,95572.73
2019-01-21T03:46:31.299Z,95576.09
2019-01-21T03:47:37.843Z,95576.33
2019-01-21T03:48:42.604Z,95578.92
2019-01-21T03:50:05.216Z,95573.83
2019-01-21T03:51:40.103Z,95578.88
2019-01-21T03:52:49.499Z,95571.73
2019-01-21T03:53:55.987Z,95573.14
2019-01-21T03:55:00.959Z,95571.73
2019-01-21T03:56:06.941Z,95573.26
2019-01-21T03:57:13.274Z,95579.49
2019-01-21T03:58:34.361Z,95576.46
2019-01-21T04:00:01.661Z,95572.91
2019-01-21T04:01:13.904Z,95577.67
2019-01-21T04:02:36.650Z,95575.45
2019-01-21T04:03:54.746Z,95575.23
2019-01-21T04:05:03.813Z,95577.95
2019-01-21T04:06:10.331Z,95574.39
2019-01-21T04:07:19.413Z,95571.36
2019-01-21T04:08:46.576Z,95568.89
2019-01-21T04:10:04.783Z,95576.42
2019-01-21T04:11:19.898Z,95579.08
2019-01-21T04:12:32.087Z,95576.17
2019-01-21T04:13:47.642Z,95576.57
2019-01-21T04:15:21.443Z,95583.13
2019-01-21T04:16:30.923Z,95579.00
2019-01-21T04:17:48.813Z,95583.69
2019-01-21T04:19:04.216Z,95586.92
2019-01-21T04:20:10.703Z,95583.89
2019-01-21T04:21:20.144Z,95577.86
2019-01-21T04:22:32.164Z,95579.48
2019-01-21T04:23:44.451Z,95584.66
2019-01-21T04:24:59.602Z,95580.41
2019-01-21T04:26:11.612Z,95579.00
2019-01-21T04:27:29.684Z,95583.25
2019-01-21T04:28:38.875Z,95578.14
2019-01-21T04:30:16.697Z,95580.81
2019-01-21T04:31:23.172Z,95574.70
2019-01-21T04:32:35.459Z,95575.91
2019-01-21T04:33:47.751Z,95576.00
2019-01-21T04:34:59.911Z,95576.17
2019-01-21T04:36:18.186Z,95577.63
2019-01-21T04:37:27.412Z,95573.70
2019-01-21T04:38:36.579Z,95579.64
2019-01-21T04:39:48.828Z,95572.94
2019-01-21T04:41:03.947Z,95578.88
2019-01-21T04:42:26.763Z,95578.19
2019-01-21T04:43:42.028Z,95586.52
2019-01-21T04:44:57.210Z,95582.63
2019-01-21T04:46:03.699Z,95583.97
2019-01-21T04:47:15.633Z,95581.30
2019-01-21T04:48:33.108Z,95585.94
2019-01-21T04:49:39.235Z,95586.39
2019-01-21T04:51:10.908Z,95591.12
2019-01-21T04:52:29.575Z,95587.44
2019-01-21T04:54:10.563Z,95585.30
2019-01-21T04:55:28.812Z,95586.15
2019-01-21T04:56:35.299Z,95581.62
2019-01-21T04:57:50.789Z,95583.36
2019-01-21T04:59:06.021Z,95579.47
2019-01-21T05:00:21.182Z,95588.37
2019-01-21T05:01:48.116Z,95586.43
2019-01-21T05:03:15.336Z,95586.75
2019-01-21T05:04:36.522Z,95590.31
2019-01-21T05:05:57.800Z,95586.43
2019-01-21T05:07:21.963Z,95586.64
2019-01-21T05:08:33.995Z,95583.92
2019-01-21T05:10:11.907Z,95587.41
2019-01-21T05:11:23.903Z,95595.84
2019-01-21T05:12:33.173Z,95591.33
2019-01-21T05:13:51.538Z,95594.55
2019-01-21T05:15:03.818Z,95591.45
2019-01-21T05:16:22.274Z,95592.55
2019-01-21T05:17:37.764Z,95584.69
2019-01-21T05:18:52.939Z,95596.46
2019-01-21T05:20:26.042Z,95591.25
2019-01-21T05:21:41.076Z,95593.30
2019-01-21T05:23:02.315Z,95589.63
2019-01-21T05:24:14.639Z,95593.95
2019-01-21T05:25:32.769Z,95590.64
2019-01-21T05:26:58.714Z,95588.70
2019-01-21T05:28:25.861Z,95590.84
2019-01-21T05:29:50.124Z,95598.40
2019-01-21T05:30:56.899Z,95589.42
2019-01-21T05:32:15.327Z,95592.66
2019-01-21T05:33:24.611Z,95598.48
2019-01-21T05:34:36.933Z,95597.92
2019-01-21T05:35:58.404Z,95595.34
2019-01-21T05:37:10.701Z,95601.81
2019-01-21T05:38:19.963Z,95603.58
2019-01-21T05:39:44.391Z,95600.58
2019-01-21T05:41:08.988Z,95600.30
2019-01-21T05:42:42.563Z,95600.30
2019-01-21T05:44:05.503Z,95601.55
2019-01-21T05:45:23.514Z,95605.48
2019-01-21T05:46:51.996Z,95601.81
2019-01-21T05:48:19.281Z,95606.98
2019-01-21T05:49:43.742Z,95606.16
2019-01-21T05:51:05.187Z,95612.44
2019-01-21T05:52:36.942Z,95614.17
2019-01-21T05:53:59.592Z,95613.97
2019-01-21T05:55:15.280Z,95610.85
2019-01-21T05:56:24.627Z,95609.00
2019-01-21T05:57:39.847Z,95616.84
2019-01-21T05:58:46.329Z,95617.81
2019-01-21T05:59:55.599Z,95618.95
2019-01-21T06:01:08.345Z,95620.16
2019-01-21T06:02:24.002Z,95617.94
2019-01-21T06:03:36.186Z,95620.60
2019-01-21T06:04:45.455Z,95624.08
2019-01-21T06:06:06.963Z,95625.53
2019-01-21T06:07:31.381Z,95627.75
2019-01-21T06:08:40.626Z,95625.78
2019-01-21T06:09:49.833Z,95627.23
2019-01-21T06:11:14.071Z,95629.17
2019-01-21T06:12:23.224Z,95628.94
2019-01-21T06:13:44.271Z,95626.27
2019-01-21T06:15:12.902Z,95634.34
2019-01-21T06:16:35.746Z,95630.23
2019-01-21T06:17:42.246Z,95629.25
2019-01-21T06:18:57.097Z,95633.66
2019-01-21T06:20:05.436Z,95635.11
2019-01-21T06:21:17.755Z,95637.14
2019-01-21T06:22:24.250Z,95633.09
2019-01-21T06:23:36.704Z,95633.94
2019-01-21T06:25:04.107Z,95637.50
2019-01-21T06:26:16.745Z,95634.22
2019-01-21T06:27:49.957Z,95628.97
2019-01-21T06:29:11.337Z,95634.91
2019-01-21T06:30:41.409Z,95629.58
2019-01-21T06:32:04.434Z,95630.42
2019-01-21T06:33:22.641Z,95629.02
2019-01-21T06:34:47.040Z,95638.23
2019-01-21T06:36:12.777Z,95633.70
2019-01-21T06:37:24.876Z,95635.23
2019-01-21T06:38:47.743Z,95633.55
2019-01-21T06:40:10.483Z,95635.69
2019-01-21T06:41:33.036Z,95638.19
2019-01-21T06:43:10.914Z,95638.23
2019-01-21T06:44:32.102Z,95635.97
2019-01-21T06:45:57.837Z,95640.61
2019-01-21T06:47:38.333Z,95638.55
2019-01-21T06:49:05.449Z,95638.68
2019-01-21T06:50:43.333Z,95644.62
2019-01-21T06:52:13.084Z,95639.48
2019-01-21T06:53:25.647Z,95642.69
2019-01-21T06:54:40.815Z,95643.21
2019-01-21T06:56:03.898Z,95643.21
2019-01-21T06:57:12.909Z,95645.35
2019-01-21T06:58:37.284Z,95648.17
2019-01-21T06:59:52.550Z,95650.52
2019-01-21T07:01:24.275Z,95644.78
2019-01-21T07:02:48.349Z,95647.56
2019-01-21T07:04:18.798Z,95656.52
2019-01-21T07:05:39.936Z,95653.84
2019-01-21T07:06:58.307Z,95653.08
2019-01-21T07:08:10.365Z,95655.98
2019-01-21T07:09:22.177Z,95658.58
2019-01-21T07:10:37.253Z,95663.83
2019-01-21T07:11:58.390Z,95658.81
2019-01-21T07:13:10.820Z,95660.55
2019-01-21T07:14:33.441Z,95660.23
2019-01-21T07:16:12.321Z,95660.55
2019-01-21T07:17:19.298Z,95664.20
2019-01-21T07:18:31.675Z,95662.30
2019-01-21T07:19:49.968Z,95674.70
2019-01-21T07:21:08.334Z,95664.20
2019-01-21T07:22:26.512Z,95664.44
2019-01-21T07:23:51.669Z,95672.20
2019-01-21T07:25:18.397Z,95664.12
2019-01-21T07:26:30.599Z,95671.03
2019-01-21T07:27:39.837Z,95675.23
2019-01-21T07:28:48.835Z,95675.00
2019-01-21T07:30:16.120Z,95676.08
2019-01-21T07:31:22.645Z,95675.31
2019-01-21T07:32:31.990Z,95671.59
2019-01-21T07:33:47.105Z,95671.47
2019-01-21T07:35:05.158Z,95673.73
2019-01-21T07:36:26.532Z,95673.66
2019-01-21T07:37:35.561Z,95669.16
2019-01-21T07:38:53.776Z,95672.41
2019-01-21T07:40:11.909Z,95681.02
2019-01-21T07:41:23.921Z,95670.71
2019-01-21T07:42:48.109Z,95672.41
2019-01-21T07:43:57.133Z,95674.10
2019-01-21T07:45:12.475Z,95677.38
2019-01-21T07:46:30.909Z,95678.87
2019-01-21T07:47:40.252Z,95675.77
2019-01-21T07:49:04.477Z,95670.42
2019-01-21T07:50:13.889Z,95672.65
2019-01-21T07:51:39.656Z,95676.08
2019-01-21T07:52:48.978Z,95675.63
2019-01-21T07:54:19.325Z,95674.79
2019-01-21T07:55:25.798Z,95677.45
2019-01-21T07:56:43.969Z,95677.06
2019-01-21T07:58:09.622Z,95681.26
2019-01-21T07:59:28.184Z,95667.92
2019-01-21T08:00:46.556Z,95668.12
2019-01-21T08:02:04.858Z,95671.48
2019-01-21T08:03:34.856Z,95677.87
2019-01-21T08:04:41.339Z,95675.00
2019-01-21T08:06:02.738Z,95678.22
2019-01-21T08:07:15.144Z,95678.83
2019-01-21T08:08:30.323Z,95678.22
2019-01-21T08:09:48.771Z,95681.42
2019-01-21T08:11:19.183Z,95675.80
2019-01-21T08:12:28.203Z,95678.06
2019-01-21T08:13:46.295Z,95678.22
2019-01-21T08:14:52.752Z,95685.14
2019-01-21T08:16:10.958Z,95679.44
2019-01-21T08:17:20.319Z,95680.81
2019-01-21T08:18:29.381Z,95685.75
2019-01-21T08:19:35.899Z,95680.81
2019-01-21T08:20:42.366Z,95686.44
2019-01-21T08:22:15.824Z,95685.91
2019-01-21T08:23:47.419Z,95683.61
2019-01-21T08:25:17.273Z,95685.35
2019-01-21T08:26:29.284Z,95693.11
2019-01-21T08:27:38.288Z,95696.55
2019-01-21T08:28:53.290Z,95694.36
2019-01-21T08:30:15.819Z,95690.42
2019-01-21T08:31:22.502Z,95694.76
2019-01-21T08:32:49.730Z,95693.44
2019-01-21T08:34:15.188Z,95693.11
2019-01-21T08:35:21.677Z,95691.61
2019-01-21T08:36:36.504Z,95692.67
2019-01-21T08:37:51.743Z,95695.05
2019-01-21T08:39:14.522Z,95698.61
2019-01-21T08:40:26.331Z,95697.55
2019-01-21T08:41:35.306Z,95699.91
2019-01-21T08:42:59.501Z,95696.18
2019-01-21T08:44:06.017Z,95702.36
2019-01-21T08:45:12.502Z,95698.08
2019-01-21T08:46:21.647Z,95697.16
2019-01-21T08:47:50.337Z,95697.45
2019-01-21T08:49:30.654Z,95698.53
2019-01-21T08:50:49.720Z,95696.39
2019-01-21T08:52:01.773Z,95693.03
2019-01-21T08:53:25.918Z,95695.86
2019-01-21T08:54:34.920Z,95698.21
2019-01-21T08:55:58.906Z,95698.73
2019-01-21T08:57:11.119Z,95697.69
2019-01-21T08:58:38.157Z,95698.98
2019-01-21T08:59:53.224Z,95699.19
2019-01-21T09:01:20.212Z,95704.92
2019-01-21T09:02:38.532Z,95700.67
2019-01-21T09:04:02.805Z,95698.69
2019-01-21T09:05:17.753Z,95701.36
2019-01-21T09:06:29.783Z,95695.13
2019-01-21T09:08:10.573Z,95699.45
2019-01-21T09:09:22.990Z,95703.47
2019-01-21T09:10:35.185Z,95702.94
2019-01-21T09:12:06.888Z,95699.74
2019-01-21T09:13:37.334Z,95697.69
2019-01-21T09:15:15.002Z,95703.75
2019-01-21T09:16:26.944Z,95701.30
2019-01-21T09:17:38.947Z,95708.33
2019-01-21T09:19:02.869Z,95707.23
2019-01-21T09:20:28.185Z,95704.52
2019-01-21T09:21:37.344Z,95704.08
2019-01-21T09:22:49.763Z,95711.07
2019-01-21T09:24:18.599Z,95705.95
2019-01-21T09:25:33.770Z,95712.41
2019-01-21T09:26:48.965Z,95707.48
2019-01-21T09:28:06.918Z,95709.30
2019-01-21T09:29:16.088Z,95712.94
2019-01-21T09:30:34.375Z,95716.75
2019-01-21T09:31:52.763Z,95660.70
2019-01-21T09:33:05.023Z,95713.31
2019-01-21T09:34:20.116Z,95715.45
2019-01-21T09:35:45.512Z,95714.61
2019-01-21T09:37:03.770Z,95713.87
2019-01-21T09:38:26.373Z,95714.61
2019-01-21T09:39:53.537Z,95716.45
2019-01-21T09:41:02.479Z,95714.31
2019-01-21T09:42:23.613Z,95720.55
2019-01-21T09:43:35.939Z,95720.02
2019-01-21T09:44:42.433Z,95723.30
2019-01-21T09:45:57.481Z,95716.82
2019-01-21T09:46:59.766Z,95720.91
2019-01-21T09:48:02.077Z,95720.91
2019-01-21T09:49:04.370Z,95722.66
2019-01-21T09:50:07.890Z,95722.89
2019-01-21T09:51:11.767Z,95723.50
2019-01-21T09:52:17.556Z,95724.67
2019-01-21T09:53:21.134Z,95722.61
2019-01-21T09:54:24.813Z,95721.84
2019-01-21T09:55:28.815Z,95720.47
2019-01-21T09:56:32.396Z,95719.09
2019-01-21T09:57:38.084Z,95715.05
2019-01-21T09:58:44.364Z,95721.77
2019-01-21T09:59:50.616Z,95720.99
2019-01-21T10:00:54.306Z,95718.12
2019-01-21T10:01:58.180Z,95722.66
2019-01-21T10:03:03.853Z,95719.02
2019-01-21T10:04:07.728Z,95724.19
2019-01-21T10:05:11.425Z,95717.27
2019-01-21T10:06:17.325Z,95719.62
2019-01-21T10:07:31.845Z,95716.70
2019-01-21T10:08:40.870Z,95717.08
2019-01-21T10:09:56.125Z,95712.75
2019-01-21T10:11:23.374Z,95714.04
2019-01-21T10:12:41.035Z,95710.69
2019-01-21T10:13:56.331Z,95712.38
2019-01-21T10:15:05.497Z,95712.30
2019-01-21T10:16:29.891Z,95713.75
2019-01-21T10:17:41.807Z,95705.34
2019-01-21T10:18:50.954Z,95707.00
2019-01-21T10:20:19.614Z,95711.73
2019-01-21T10:21:31.589Z,95706.72
2019-01-21T10:22:55.753Z,95705.98
2019-01-21T10:24:02.233Z,95708.45
2019-01-21T10:25:23.186Z,95703.07
2019-01-21T10:26:58.003Z,95706.19
2019-01-21T10:28:16.127Z,95709.09
2019-01-21T10:29:25.234Z,95703.96
2019-01-21T10:30:34.591Z,95702.67
2019-01-21T10:31:52.662Z,95700.31
2019-01-21T10:33:10.744Z,95702.50
2019-01-21T10:34:28.925Z,95700.44
2019-01-21T10:35:43.842Z,95698.70
2019-01-21T10:37:02.108Z,95696.43
2019-01-21T10:38:29.969Z,95697.61
2019-01-21T10:39:48.348Z,95697.08
2019-01-21T10:40:57.799Z,95695.39
2019-01-21T10:42:06.838Z,95691.91
2019-01-21T10:43:21.534Z,95689.67
2019-01-21T10:44:30.432Z,95683.56
2019-01-21T10:45:55.784Z,95689.83
2019-01-21T10:47:08.145Z,95692.63
2019-01-21T10:48:17.373Z,95685.74
2019-01-21T10:49:29.353Z,95685.53
2019-01-21T10:50:47.528Z,95690.31
2019-01-21T10:52:11.805Z,95684.14
2019-01-21T10:53:36.176Z,95682.52
2019-01-21T10:54:51.126Z,95680.21
2019-01-21T10:56:12.329Z,95680.17
2019-01-21T10:57:18.847Z,95674.19
2019-01-21T10:58:41.777Z,95676.60
2019-01-21T10:59:56.845Z,95675.11
2019-01-21T11:01:27.205Z,95677.36
2019-01-21T11:02:36.835Z,95675.98
2019-01-21T11:03:45.850Z,95676.09
2019-01-21T11:04:58.254Z,95677.27
2019-01-21T11:06:07.501Z,95674.00
2019-01-21T11:07:40.944Z,95674.13
2019-01-21T11:08:53.267Z,95671.91
2019-01-21T11:10:17.493Z,95674.42
2019-01-21T11:11:29.718Z,95676.41
2019-01-21T11:12:42.210Z,95667.67
2019-01-21T11:14:04.987Z,95671.31
2019-01-21T11:15:11.534Z,95663.83
2019-01-21T11:16:20.466Z,95667.98
2019-01-21T11:17:43.391Z,95667.34
2019-01-21T11:18:49.879Z,95666.72
2019-01-21T11:20:24.909Z,95667.17
2019-01-21T11:21:37.296Z,95661.02
2019-01-21T11:22:43.807Z,95661.63
2019-01-21T11:23:56.220Z,95664.75
2019-01-21T11:25:08.731Z,95663.56
2019-01-21T11:26:29.877Z,95660.38
2019-01-21T11:27:48.265Z,95661.68
2019-01-21T11:29:12.467Z,95662.00
2019-01-21T11:30:37.050Z,95658.73
2019-01-21T11:32:10.723Z,95659.45
2019-01-21T11:33:29.257Z,95656.16
2019-01-21T11:34:41.655Z,95656.48
2019-01-21T11:36:04.407Z,95660.61
2019-01-21T11:37:28.687Z,95659.80
2019-01-21T11:38:40.854Z,95655.44
2019-01-21T11:39:56.332Z,95656.83
2019-01-21T11:41:08.845Z,95655.82
2019-01-21T11:42:18.124Z,95654.36
2019-01-21T11:43:33.796Z,95651.47
2019-01-21T11:44:42.977Z,95648.77
2019-01-21T11:45:52.310Z,95652.41
2019-01-21T11:47:01.729Z,95650.96
2019-01-21T11:48:14.146Z,95651.48
2019-01-21T11:49:41.358Z,95645.78
2019-01-21T11:51:19.149Z,95653.91
2019-01-21T11:52:34.197Z,95650.33
2019-01-21T11:53:51.990Z,95649.75
2019-01-21T11:55:12.940Z,95648.69
2019-01-21T11:56:24.977Z,95648.69
2019-01-21T11:57:34.436Z,95653.22
2019-01-21T11:58:46.881Z,95650.19
2019-01-21T12:00:11.051Z,95648.13
2019-01-21T12:01:29.357Z,95653.75
2019-01-21T12:02:53.534Z,95643.66
2019-01-21T12:04:00.067Z,95644.19
2019-01-21T12:05:18.181Z,95645.72
2019-01-21T12:06:24.670Z,95641.39
2019-01-21T12:07:47.643Z,95644.51
2019-01-21T12:09:12.037Z,95643.53
2019-01-21T12:10:39.024Z,95647.01
2019-01-21T12:11:51.046Z,95646.39
2019-01-21T12:13:03.335Z,95643.47
2019-01-21T12:14:24.627Z,95643.68
2019-01-21T12:15:36.694Z,95640.65
2019-01-21T12:17:04.167Z,95642.95
2019-01-21T12:18:28.592Z,95646.42
2019-01-21T12:19:50.031Z,95642.12
2019-01-21T12:21:08.445Z,95642.79
2019-01-21T12:22:43.544Z,95644.61
2019-01-21T12:23:50.031Z,95639.08
2019-01-21T12:24:56.538Z,95637.44
2019-01-21T12:26:03.017Z,95634.94
2019-01-21T12:27:12.215Z,95635.70
2019-01-21T12:28:33.536Z,95630.84
2019-01-21T12:29:51.794Z,95630.84
2019-01-21T12:31:00.829Z,95637.20
2019-01-21T12:32:35.361Z,95638.94
2019-01-21T12:33:56.607Z,95632.61
2019-01-21T12:35:03.127Z,95632.01
2019-01-21T12:36:15.555Z,95631.45
2019-01-21T12:37:24.842Z,95634.18
2019-01-21T12:38:52.255Z,95628.05
2019-01-21T12:39:58.743Z,95627.53
2019-01-21T12:41:10.924Z,95627.32
2019-01-21T12:42:17.393Z,95623.32
2019-01-21T12:43:23.884Z,95624.71
2019-01-21T12:44:46.855Z,95625.56
2019-01-21T12:46:17.398Z,95625.13
2019-01-21T12:47:29.508Z,95622.94
2019-01-21T12:48:38.812Z,95619.05
2019-01-21T12:50:01.422Z,95617.08
2019-01-21T12:51:22.698Z,95616.88
2019-01-21T12:52:34.739Z,95621.64
2019-01-21T12:53:47.327Z,95626.73
2019-01-21T12:55:05.410Z,95624.67
2019-01-21T12:56:20.543Z,95622.72
2019-01-21T12:57:44.940Z,95617.35
2019-01-21T12:59:00.501Z,95618.02
2019-01-21T13:00:18.558Z,95612.19
2019-01-21T13:01:36.925Z,95613.81
2019-01-21T13:02:58.327Z,95612.48
2019-01-21T13:04:16.914Z,95612.36
2019-01-21T13:05:35.166Z,95618.02
2019-01-21T13:06:56.601Z,95614.00
2019-01-21T13:08:12.336Z,95607.17
2019-01-21T13:09:33.677Z,95610.39
2019-01-21T13:11:01.215Z,95604.21
2019-01-21T13:12:31.510Z,95603.52
2019-01-21T13:13:47.003Z,95605.48
2019-01-21T13:15:05.379Z,95607.55
2019-01-21T13:16:20.392Z,95600.12
2019-01-21T13:17:26.894Z,95602.83
2019-01-21T13:18:35.939Z,95601.02
2019-01-21T13:19:45.108Z,95595.83
2019-01-21T13:20:54.158Z,95598.86
2019-01-21T13:22:18.251Z,95599.62
2019-01-21T13:23:30.308Z,95597.66
2019-01-21T13:24:51.387Z,95603.19
2019-01-21T13:26:30.321Z,95600.59
2019-01-21T13:28:11.390Z,95600.41
2019-01-21T13:29:20.644Z,95592.54
2019-01-21T13:30:41.888Z,95603.67
2019-01-21T13:31:54.215Z,95595.56
2019-01-21T13:33:00.707Z,95598.92
2019-01-21T13:34:23.571Z,95599.31
2019-01-21T13:35:36.242Z,95597.91
2019-01-21T13:36:48.583Z,95595.75
2019-01-21T13:38:03.754Z,95586.70
2019-01-21T13:39:15.732Z,95592.12
2019-01-21T13:40:25.187Z,95593.08
2019-01-21T13:41:31.663Z,95591.48
2019-01-21T13:42:43.921Z,95591.26
2019-01-21T13:43:52.945Z,95589.62
2019-01-21T13:45:15.862Z,95593.07
2019-01-21T13:46:22.362Z,95588.41
2019-01-21T13:47:28.875Z,95589.41
2019-01-21T13:48:47.159Z,95589.62
2019-01-21T13:50:02.081Z,95587.66
2019-01-21T13:51:24.634Z,95586.16
2019-01-21T13:52:49.230Z,95588.21
2019-01-21T13:54:01.361Z,95589.95
2019-01-21T13:55:31.599Z,95589.52
2019-01-21T13:56:40.660Z,95592.97
2019-01-21T13:57:56.141Z,95587.26
2019-01-21T13:59:35.380Z,95592.88
2019-01-21T14:00:47.815Z,95590.49
2019-01-21T14:02:02.606Z,95586.51
2019-01-21T14:03:14.810Z,95588.89
2019-01-21T14:04:54.200Z,95587.90
2019-01-21T14:06:09.486Z,95583.25
2019-01-21T14:07:37.827Z,95586.30
2019-01-21T14:09:02.087Z,95591.02
2019-01-21T14:10:26.404Z,95591.26
2019-01-21T14:11:47.343Z,95591.88
2019-01-21T14:12:59.688Z,95594.47
2019-01-21T14:14:06.190Z,95593.18
2019-01-21T14:15:33.525Z,95588.65
2019-01-21T14:16:42.688Z,95594.36
2019-01-21T14:17:49.200Z,95592.54
2019-01-21T14:19:07.154Z,95586.91
2019-01-21T14:20:19.531Z,95594.90
2019-01-21T14:21:34.587Z,95584.09
2019-01-21T14:22:43.732Z,95591.34
2019-01-21T14:23:56.137Z,95590.59
2019-01-21T14:25:02.636Z,95595.91
2019-01-21T14:26:09.143Z,95592.78
2019-01-21T14:27:39.433Z,95593.84
2019-01-21T14:28:51.608Z,95591.26
2019-01-21T14:30:10.131Z,95596.00
2019-01-21T14:31:16.619Z,95595.33
2019-01-21T14:32:42.026Z,95597.39
2019-01-21T14:34:00.052Z,95595.56
2019-01-21T14:35:30.301Z,95598.27
2019-01-21T14:36:51.687Z,95596.44